Terminal Aerodrome Forecast
Issued by NWS

Home | Current Version | Previous Version | Graphics & Text | Print | Product List | Glossary On
Versions: 1 2 3 4 5 6 7 8 9 10 11 12 13 14 15 16 17 18 19 20 21 22 23 24 25 26 27 28 29 30 31 32 33 34 35 36 37 38 39 40 41 42 43 44 45 46
000
FTUS43 KGRB 122341
TAFATW
TAF
KATW 122341Z 1300/1324 28004KT P6SM BKN070
     FM130500 20003KT P6SM -SHSN OVC060
     FM130800 16004KT 6SM -SN OVC050
     FM130900 15005KT 3SM -SN OVC040
     FM131000 14007KT 2SM -SN OVC029
     FM131100 07009KT 1SM -SN OVC009=

USA.gov is the U.S. government's official web portal to all federal, state and local government web resources and services.